Time;durP1;ratioP1;P1;durP2;ratioP2;P2;SDS_P1;SDS_P2;PMS_P1;PMS_P2;Temp;Humidity;BMP_temperature;BMP_pressure;BME280_temperature;BME280_humidity;BME280_pressure;Samples;Min_cycle;Max_cycle;Signal;HPM_P1;HPM_P2
2023/11/08 00:00:32;;;;;;;1999.90;999.90;;;;;;;;;;5038631;28;20763;-85
2023/11/08 00:03:00;;;;;;;1999.90;999.90;;;;;;;;;;5041716;28;20049;-84
2023/11/08 00:05:29;;;;;;;1999.90;999.90;;;;;;;;;;5056715;28;20049;-85
2023/11/08 00:07:56;;;;;;;1999.90;999.90;;;;;;;;;;5059881;28;20106;-84
2023/11/08 00:10:23;;;;;;;1999.90;999.90;;;;;;;;;;5039183;28;20049;-84
2023/11/08 00:12:50;;;;;;;1999.90;999.90;;;;;;;;;;5060394;28;20102;-85
2023/11/08 00:15:17;;;;;;;1999.90;999.90;;;;;;;;;;5043374;28;20419;-84
2023/11/08 00:17:44;;;;;;;1999.90;999.90;;;;;;;;;;5061302;28;20051;-84
2023/11/08 00:20:12;;;;;;;1999.90;999.90;;;;;;;;;;5058084;28;20051;-84
2023/11/08 00:22:43;;;;;;;1999.90;999.90;;;;;;;;;;5056581;28;20083;-85
2023/11/08 00:25:10;;;;;;;1999.90;999.90;;;;;;;;;;5056442;28;20059;-85
2023/11/08 00:27:37;;;;;;;1999.90;999.90;;;;;;;;;;5054304;28;20053;-84
2023/11/08 00:30:05;;;;;;;1999.90;999.90;;;;;;;;;;5061476;28;20049;-85
2023/11/08 00:32:32;;;;;;;1999.90;999.90;;;;;;;;;;5060252;28;20056;-84
2023/11/08 00:34:59;;;;;;;1999.90;999.90;;;;;;;;;;5058999;28;20147;-84
2023/11/08 00:37:26;;;;;;;1999.90;999.90;;;;;;;;;;5063926;28;20079;-85
2023/11/08 00:39:54;;;;;;;1999.90;999.90;;;;;;;;;;5061138;28;20052;-84
2023/11/08 00:42:21;;;;;;;1999.90;999.90;;;;;;;;;;5042975;28;20494;-84
2023/11/08 00:44:48;;;;;;;1999.90;999.90;;;;;;;;;;5055183;28;20049;-85
2023/11/08 00:47:15;;;;;;;1999.90;999.90;;;;;;;;;;5055468;28;20059;-84
2023/11/08 00:49:44;;;;;;;1999.90;999.90;;;;;;;;;;5044908;28;20628;-84
2023/11/08 00:52:11;;;;;;;1999.90;999.90;;;;;;;;;;5062621;28;20052;-83
2023/11/08 00:54:38;;;;;;;1999.90;999.90;;;;;;;;;;5053953;28;20045;-86
2023/11/08 00:57:08;;;;;;;1999.90;999.90;;;;;;;;;;5060334;28;20055;-83
2023/11/08 00:59:35;;;;;;;1999.90;999.90;;;;;;;;;;5057740;28;20499;-83
2023/11/08 01:02:02;;;;;;;1999.90;999.90;;;;;;;;;;5053818;28;20510;-84
2023/11/08 01:04:29;;;;;;;1999.90;999.90;;;;;;;;;;5061156;28;20044;-84
2023/11/08 01:06:58;;;;;;;1999.90;999.90;;;;;;;;;;5057956;28;20083;-85
2023/11/08 01:09:25;;;;;;;1999.90;999.90;;;;;;;;;;5043320;28;20057;-84
2023/11/08 01:11:52;;;;;;;1999.90;999.90;;;;;;;;;;5057605;28;20590;-85
2023/11/08 01:14:20;;;;;;;1999.90;999.90;;;;;;;;;;5059391;28;20052;-85
2023/11/08 01:16:49;;;;;;;1999.90;999.90;;;;;;;;;;5042539;28;20055;-85
2023/11/08 01:19:16;;;;;;;1999.90;999.90;;;;;;;;;;5039576;28;20106;-85
2023/11/08 01:21:45;;;;;;;1999.90;999.90;;;;;;;;;;5039304;28;20053;-85
2023/11/08 01:24:16;;;;;;;1999.90;999.90;;;;;;;;;;5058382;28;20045;-84
2023/11/08 01:26:43;;;;;;;1999.90;999.90;;;;;;;;;;5059854;28;20139;-85
2023/11/08 01:29:10;;;;;;;1999.90;999.90;;;;;;;;;;5042967;28;20048;-84
2023/11/08 01:31:38;;;;;;;1999.90;999.90;;;;;;;;;;5054348;28;20127;-84
2023/11/08 01:34:05;;;;;;;1999.90;999.90;;;;;;;;;;5054383;28;20052;-84
2023/11/08 01:36:32;;;;;;;1999.90;999.90;;;;;;;;;;5069668;28;20044;-85
2023/11/08 01:38:59;;;;;;;1999.90;999.90;;;;;;;;;;5063389;28;20065;-85
2023/11/08 01:41:26;;;;;;;1999.90;999.90;;;;;;;;;;5061352;28;20075;-85
2023/11/08 01:43:53;;;;;;;1999.90;999.90;;;;;;;;;;5045221;28;20048;-85
2023/11/08 01:46:22;;;;;;;1999.90;999.90;;;;;;;;;;5060633;28;20053;-85
2023/11/08 01:48:51;;;;;;;1999.90;999.90;;;;;;;;;;5063417;28;20059;-84
2023/11/08 01:51:19;;;;;;;1999.90;999.90;;;;;;;;;;5061832;28;20458;-85
2023/11/08 01:53:48;;;;;;;1999.90;999.90;;;;;;;;;;5052801;28;20048;-85
2023/11/08 01:56:16;;;;;;;1999.90;999.90;;;;;;;;;;5064027;28;20445;-85
2023/11/08 01:58:44;;;;;;;1999.90;999.90;;;;;;;;;;5047269;28;20107;-85
2023/11/08 02:01:11;;;;;;;1999.90;999.90;;;;;;;;;;5040757;28;20087;-84
2023/11/08 02:03:39;;;;;;;1999.90;999.90;;;;;;;;;;5062353;28;20518;-84
2023/11/08 02:06:08;;;;;;;1999.90;999.90;;;;;;;;;;5044041;28;20048;-85
2023/11/08 02:08:35;;;;;;;1999.90;999.90;;;;;;;;;;5061422;28;20040;-85
2023/11/08 02:11:02;;;;;;;1999.90;999.90;;;;;;;;;;5061270;28;20140;-85
2023/11/08 02:13:29;;;;;;;1999.90;999.90;;;;;;;;;;5060832;28;20041;-85
2023/11/08 02:15:56;;;;;;;1999.90;999.90;;;;;;;;;;5059051;28;20518;-85
2023/11/08 02:18:23;;;;;;;1999.90;999.90;;;;;;;;;;5064392;28;20052;-85
2023/11/08 02:20:50;;;;;;;1999.90;999.90;;;;;;;;;;5061028;28;20136;-83
2023/11/08 02:23:18;;;;;;;1999.90;999.90;;;;;;;;;;5026500;28;20049;-82
2023/11/08 02:25:46;;;;;;;1999.90;999.90;;;;;;;;;;5058626;28;20057;-83
2023/11/08 02:28:15;;;;;;;1999.90;999.90;;;;;;;;;;5059600;28;20053;-83
2023/11/08 02:30:42;;;;;;;1999.90;999.90;;;;;;;;;;5059922;28;20057;-83
2023/11/08 02:33:09;;;;;;;1999.90;999.90;;;;;;;;;;5040491;28;20060;-83
2023/11/08 02:35:37;;;;;;;1999.90;999.90;;;;;;;;;;5059911;28;20056;-83
2023/11/08 02:38:06;;;;;;;1999.90;999.90;;;;;;;;;;5061989;28;20057;-83
2023/11/08 02:40:33;;;;;;;1999.90;999.90;;;;;;;;;;5061037;28;20073;-84
2023/11/08 02:43:02;;;;;;;1999.90;999.90;;;;;;;;;;5058510;28;20056;-84
2023/11/08 02:45:29;;;;;;;1999.90;999.90;;;;;;;;;;5040812;28;20106;-84
2023/11/08 02:47:56;;;;;;;1999.90;999.90;;;;;;;;;;5064258;28;20143;-84
2023/11/08 02:50:23;;;;;;;1999.90;999.90;;;;;;;;;;5044239;28;20124;-84
2023/11/08 02:52:50;;;;;;;1999.90;999.90;;;;;;;;;;5042856;28;20053;-84
2023/11/08 02:55:16;;;;;;;1999.90;999.90;;;;;;;;;;5043899;28;20139;-84
2023/11/08 02:57:44;;;;;;;1999.90;999.90;;;;;;;;;;5061592;28;20051;-84
2023/11/08 03:00:14;;;;;;;1999.90;999.90;;;;;;;;;;5055747;28;20044;-85
2023/11/08 03:02:42;;;;;;;1999.90;999.90;;;;;;;;;;5062818;28;20052;-84
2023/11/08 03:05:10;;;;;;;1999.90;999.90;;;;;;;;;;5054603;28;20080;-85
2023/11/08 03:07:37;;;;;;;1999.90;999.90;;;;;;;;;;5042248;28;20525;-84
2023/11/08 03:10:05;;;;;;;1999.90;999.90;;;;;;;;;;5042227;28;20064;-83
2023/11/08 03:12:32;;;;;;;1999.90;999.90;;;;;;;;;;5061996;28;20055;-84
2023/11/08 03:14:59;;;;;;;1999.90;999.90;;;;;;;;;;5064037;28;20075;-84
2023/11/08 03:17:28;;;;;;;1999.90;999.90;;;;;;;;;;5063688;28;20063;-85
2023/11/08 03:19:56;;;;;;;1999.90;999.90;;;;;;;;;;5063876;28;20045;-84
2023/11/08 03:22:23;;;;;;;1999.90;999.90;;;;;;;;;;5041425;28;20140;-84
2023/11/08 03:24:52;;;;;;;1999.90;999.90;;;;;;;;;;5056785;28;20409;-84
2023/11/08 03:27:20;;;;;;;1999.90;999.90;;;;;;;;;;5059229;28;20056;-84
2023/11/08 03:29:47;;;;;;;1999.90;999.90;;;;;;;;;;5052012;28;20076;-84
2023/11/08 03:32:15;;;;;;;1999.90;999.90;;;;;;;;;;5060009;28;20143;-86
2023/11/08 03:34:45;;;;;;;1999.90;999.90;;;;;;;;;;5061212;28;20049;-85
2023/11/08 03:37:12;;;;;;;1999.90;999.90;;;;;;;;;;5056920;28;20094;-84
2023/11/08 03:39:41;;;;;;;1999.90;999.90;;;;;;;;;;5063242;28;20055;-85
2023/11/08 03:42:08;;;;;;;1999.90;999.90;;;;;;;;;;5061468;28;20140;-84
2023/11/08 03:44:35;;;;;;;1999.90;999.90;;;;;;;;;;5060229;28;20060;-86
2023/11/08 03:47:02;;;;;;;1999.90;999.90;;;;;;;;;;5064596;28;20128;-85
2023/11/08 03:49:34;;;;;;;1999.90;999.90;;;;;;;;;;5050846;28;20052;-85
2023/11/08 03:52:02;;;;;;;1999.90;999.90;;;;;;;;;;5071349;28;20580;-85
2023/11/08 03:54:29;;;;;;;1999.90;999.90;;;;;;;;;;5067088;28;20735;-85
2023/11/08 03:56:56;;;;;;;1999.90;999.90;;;;;;;;;;5045927;28;20127;-85
2023/11/08 03:59:24;;;;;;;1999.90;999.90;;;;;;;;;;5047100;28;20045;-85
2023/11/08 04:01:50;;;;;;;1999.90;999.90;;;;;;;;;;5044943;28;20052;-83
2023/11/08 04:04:19;;;;;;;1999.90;999.90;;;;;;;;;;5041953;28;20572;-84
2023/11/08 04:06:47;;;;;;;1999.90;999.90;;;;;;;;;;5058650;28;20418;-83
2023/11/08 04:09:16;;;;;;;1999.90;999.90;;;;;;;;;;5061920;28;20045;-84
2023/11/08 04:11:43;;;;;;;1999.90;999.90;;;;;;;;;;5057573;28;20053;-84
2023/11/08 04:14:10;;;;;;;1999.90;999.90;;;;;;;;;;5057445;28;20541;-84
2023/11/08 04:16:38;;;;;;;1999.90;999.90;;;;;;;;;;5059313;28;20060;-85
2023/11/08 04:19:07;;;;;;;1999.90;999.90;;;;;;;;;;5058570;28;20083;-84
2023/11/08 04:21:33;;;;;;;1999.90;999.90;;;;;;;;;;5059291;28;20388;-85
2023/11/08 04:24:02;;;;;;;1999.90;999.90;;;;;;;;;;5061757;28;20049;-86
2023/11/08 04:26:32;;;;;;;1999.90;999.90;;;;;;;;;;5041663;28;20132;-83
2023/11/08 04:29:01;;;;;;;1999.90;999.90;;;;;;;;;;5055563;28;20107;-84
2023/11/08 04:31:28;;;;;;;1999.90;999.90;;;;;;;;;;5058501;28;20048;-85
2023/11/08 04:33:54;;;;;;;1999.90;999.90;;;;;;;;;;5060110;28;20598;-85
2023/11/08 04:36:21;;;;;;;1999.90;999.90;;;;;;;;;;5057326;28;20517;-83
2023/11/08 04:38:48;;;;;;;1999.90;999.90;;;;;;;;;;5062080;28;20056;-85
2023/11/08 04:41:15;;;;;;;1999.90;999.90;;;;;;;;;;5057340;28;20550;-83
2023/11/08 04:43:57;;;;;;;1999.90;999.90;;;;;;;;;;5053389;28;20040;-83
2023/11/08 04:46:23;;;;;;;1999.90;999.90;;;;;;;;;;5058454;28;20056;-84
2023/11/08 04:48:51;;;;;;;1999.90;999.90;;;;;;;;;;5059534;28;20510;-84
2023/11/08 04:51:18;;;;;;;1999.90;999.90;;;;;;;;;;5035278;28;20049;-83
2023/11/08 04:53:44;;;;;;;1999.90;999.90;;;;;;;;;;5053799;28;20139;-83
2023/11/08 04:56:11;;;;;;;1999.90;999.90;;;;;;;;;;5058262;28;20060;-84
2023/11/08 04:58:37;;;;;;;1999.90;999.90;;;;;;;;;;5041883;28;20048;-84
2023/11/08 05:01:06;;;;;;;1999.90;999.90;;;;;;;;;;5057325;28;20059;-84
2023/11/08 05:03:33;;;;;;;1999.90;999.90;;;;;;;;;;5059504;28;20055;-85
2023/11/08 05:06:00;;;;;;;1999.90;999.90;;;;;;;;;;5060423;28;20531;-84
2023/11/08 05:08:26;;;;;;;1999.90;999.90;;;;;;;;;;5055621;28;20055;-86
2023/11/08 05:10:54;;;;;;;1999.90;999.90;;;;;;;;;;5061424;28;20417;-85
2023/11/08 05:13:20;;;;;;;1999.90;999.90;;;;;;;;;;5063599;28;20099;-85
2023/11/08 05:15:49;;;;;;;1999.90;999.90;;;;;;;;;;5062479;28;20075;-84
2023/11/08 05:18:17;;;;;;;1999.90;999.90;;;;;;;;;;5065422;28;20055;-85
2023/11/08 05:20:44;;;;;;;1999.90;999.90;;;;;;;;;;5058487;28;20503;-87
2023/11/08 05:23:11;;;;;;;1999.90;999.90;;;;;;;;;;5062136;28;20159;-86
2023/11/08 05:25:40;;;;;;;1999.90;999.90;;;;;;;;;;5040376;28;20051;-85
2023/11/08 05:28:08;;;;;;;1999.90;999.90;;;;;;;;;;5041184;28;20053;-85
2023/11/08 05:30:37;;;;;;;1999.90;999.90;;;;;;;;;;5043017;28;20045;-85
2023/11/08 05:33:05;;;;;;;1999.90;999.90;;;;;;;;;;5064816;28;20539;-86
2023/11/08 05:35:34;;;;;;;1999.90;999.90;;;;;;;;;;5036366;28;20135;-86
2023/11/08 05:38:01;;;;;;;1999.90;999.90;;;;;;;;;;5055898;28;20052;-85
2023/11/08 05:40:30;;;;;;;1999.90;999.90;;;;;;;;;;5059113;28;20043;-85
2023/11/08 05:42:59;;;;;;;1999.90;999.90;;;;;;;;;;5052428;28;20052;-85
2023/11/08 05:45:26;;;;;;;1999.90;999.90;;;;;;;;;;5052824;28;20057;-83
2023/11/08 05:47:54;;;;;;;1999.90;999.90;;;;;;;;;;5055317;28;20137;-85
2023/11/08 05:50:20;;;;;;;1999.90;999.90;;;;;;;;;;5056146;28;20049;-84
2023/11/08 05:52:49;;;;;;;1999.90;999.90;;;;;;;;;;5059581;28;20048;-86
2023/11/08 05:55:16;;;;;;;1999.90;999.90;;;;;;;;;;5037421;28;20082;-85
2023/11/08 05:57:44;;;;;;;1999.90;999.90;;;;;;;;;;5038678;28;20499;-85
2023/11/08 06:00:14;;;;;;;1999.90;999.90;;;;;;;;;;5058130;28;20055;-84
2023/11/08 06:02:40;;;;;;;1999.90;999.90;;;;;;;;;;5040728;28;20106;-85
2023/11/08 06:05:09;;;;;;;1999.90;999.90;;;;;;;;;;5057029;28;20057;-84
2023/11/08 06:07:35;;;;;;;1999.90;999.90;;;;;;;;;;5057680;28;20057;-84
2023/11/08 06:10:04;;;;;;;1999.90;999.90;;;;;;;;;;5043354;28;20049;-85
2023/11/08 06:12:32;;;;;;;1999.90;999.90;;;;;;;;;;5054931;28;20130;-84
2023/11/08 06:15:00;;;;;;;1999.90;999.90;;;;;;;;;;5058747;28;20048;-85
2023/11/08 06:17:27;;;;;;;1999.90;999.90;;;;;;;;;;5053772;28;20077;-86
2023/11/08 06:19:53;;;;;;;1999.90;999.90;;;;;;;;;;5057175;28;20041;-84
2023/11/08 06:22:22;;;;;;;1999.90;999.90;;;;;;;;;;5059267;28;20560;-85
2023/11/08 06:24:48;;;;;;;1999.90;999.90;;;;;;;;;;5062500;28;20558;-84
2023/11/08 06:27:16;;;;;;;1999.90;999.90;;;;;;;;;;5064971;28;20055;-85
2023/11/08 06:29:43;;;;;;;1999.90;999.90;;;;;;;;;;5064831;28;20044;-85
2023/11/08 06:32:10;;;;;;;1999.90;999.90;;;;;;;;;;5059558;28;20149;-86
2023/11/08 06:34:40;;;;;;;1999.90;999.90;;;;;;;;;;5068753;28;20124;-85
2023/11/08 06:37:07;;;;;;;1999.90;999.90;;;;;;;;;;5063483;28;20044;-84
2023/11/08 06:39:35;;;;;;;1999.90;999.90;;;;;;;;;;5059516;28;20060;-85
2023/11/08 06:42:02;;;;;;;1999.90;999.90;;;;;;;;;;5047670;28;20509;-85
2023/11/08 06:44:31;;;;;;;1999.90;999.90;;;;;;;;;;5056993;28;20681;-86
2023/11/08 06:46:57;;;;;;;1999.90;999.90;;;;;;;;;;5041690;28;20049;-86
2023/11/08 06:49:24;;;;;;;1999.90;999.90;;;;;;;;;;5041715;28;20510;-84
2023/11/08 06:51:51;;;;;;;1999.90;999.90;;;;;;;;;;5059373;28;20048;-83
2023/11/08 06:54:18;;;;;;;1999.90;999.90;;;;;;;;;;5056120;28;20057;-82
2023/11/08 06:56:46;;;;;;;1999.90;999.90;;;;;;;;;;5058850;28;20058;-82
2023/11/08 06:59:13;;;;;;;1999.90;999.90;;;;;;;;;;5059428;28;20045;-84
2023/11/08 07:01:41;;;;;;;1999.90;999.90;;;;;;;;;;5045049;28;20045;-83
2023/11/08 07:04:08;;;;;;;1999.90;999.90;;;;;;;;;;5061652;28;20060;-83
2023/11/08 07:06:36;;;;;;;1999.90;999.90;;;;;;;;;;5044816;28;20143;-85
2023/11/08 07:09:04;;;;;;;1999.90;999.90;;;;;;;;;;5042417;28;20057;-83
2023/11/08 07:11:31;;;;;;;1999.90;999.90;;;;;;;;;;5057042;28;20048;-83
2023/11/08 07:13:58;;;;;;;1999.90;999.90;;;;;;;;;;5048764;28;20468;-85
2023/11/08 07:16:26;;;;;;;1999.90;999.90;;;;;;;;;;5059970;28;20080;-86
2023/11/08 07:18:55;;;;;;;1999.90;999.90;;;;;;;;;;5062628;28;20053;-87
2023/11/08 07:21:23;;;;;;;1999.90;999.90;;;;;;;;;;5060408;28;20059;-85
2023/11/08 07:23:52;;;;;;;1999.90;999.90;;;;;;;;;;5059752;28;20411;-87
2023/11/08 07:26:19;;;;;;;1999.90;999.90;;;;;;;;;;5057243;28;20076;-85
2023/11/08 07:28:47;;;;;;;1999.90;999.90;;;;;;;;;;5059381;28;20114;-82
2023/11/08 07:31:14;;;;;;;1999.90;999.90;;;;;;;;;;5042937;28;20060;-86
2023/11/08 07:33:42;;;;;;;1999.90;999.90;;;;;;;;;;5063321;28;20076;-85
2023/11/08 07:36:10;;;;;;;1999.90;999.90;;;;;;;;;;5066497;28;20045;-83
2023/11/08 07:38:37;;;;;;;1999.90;999.90;;;;;;;;;;5060757;28;20550;-84
2023/11/08 07:41:04;;;;;;;1999.90;999.90;;;;;;;;;;5059582;28;20514;-85
2023/11/08 07:43:34;;;;;;;1999.90;999.90;;;;;;;;;;5060173;28;20048;-87
2023/11/08 07:46:00;;;;;;;1999.90;999.90;;;;;;;;;;5055031;28;20071;-83
2023/11/08 07:48:27;;;;;;;1999.90;999.90;;;;;;;;;;5064655;28;20127;-82
2023/11/08 07:50:54;;;;;;;1999.90;999.90;;;;;;;;;;5056650;28;20053;-82
2023/11/08 07:53:23;;;;;;;1999.90;999.90;;;;;;;;;;5041803;28;20057;-85
2023/11/08 07:55:50;;;;;;;1999.90;999.90;;;;;;;;;;5055939;28;20052;-82
2023/11/08 07:58:18;;;;;;;1999.90;999.90;;;;;;;;;;5057376;28;20062;-83
2023/11/08 08:00:46;;;;;;;1999.90;999.90;;;;;;;;;;5044648;28;20041;-82
2023/11/08 08:03:15;;;;;;;1999.90;999.90;;;;;;;;;;5040436;28;20077;-82
2023/11/08 08:05:42;;;;;;;1999.90;999.90;;;;;;;;;;5056712;28;20395;-82
2023/11/08 08:08:10;;;;;;;1999.90;999.90;;;;;;;;;;5057965;28;20059;-84
2023/11/08 08:10:40;;;;;;;1999.90;999.90;;;;;;;;;;5062417;28;20048;-86
2023/11/08 08:13:07;;;;;;;1999.90;999.90;;;;;;;;;;5057760;28;20143;-83
2023/11/08 08:15:34;;;;;;;1999.90;999.90;;;;;;;;;;5024932;28;20044;-88
2023/11/08 08:18:01;;;;;;;1999.90;999.90;;;;;;;;;;5040669;28;20048;-84
2023/11/08 08:20:29;;;;;;;1999.90;999.90;;;;;;;;;;5042520;28;20508;-84
2023/11/08 08:22:57;;;;;;;1999.90;999.90;;;;;;;;;;5060065;28;20903;-82
2023/11/08 08:25:24;;;;;;;1999.90;999.90;;;;;;;;;;5058881;28;20055;-83
2023/11/08 08:27:52;;;;;;;1999.90;999.90;;;;;;;;;;5037517;28;20131;-83
2023/11/08 08:30:20;;;;;;;1999.90;999.90;;;;;;;;;;5061603;28;20051;-81
2023/11/08 08:32:49;;;;;;;1999.90;999.90;;;;;;;;;;5056761;28;20094;-83
2023/11/08 08:35:17;;;;;;;1999.90;999.90;;;;;;;;;;5059473;28;20056;-82
2023/11/08 08:37:44;;;;;;;1999.90;999.90;;;;;;;;;;5045255;28;20051;-84
2023/11/08 08:40:12;;;;;;;1999.90;999.90;;;;;;;;;;5039367;28;20124;-85
2023/11/08 08:42:39;;;;;;;1999.90;999.90;;;;;;;;;;5058995;28;20099;-82
2023/11/08 08:45:09;;;;;;;1999.90;999.90;;;;;;;;;;5058140;28;20067;-82
2023/11/08 08:47:37;;;;;;;1999.90;999.90;;;;;;;;;;5053608;28;20139;-83
2023/11/08 08:50:04;;;;;;;1999.90;999.90;;;;;;;;;;5059209;28;20595;-83
2023/11/08 08:52:31;;;;;;;1999.90;999.90;;;;;;;;;;5061785;28;20532;-84
2023/11/08 08:54:59;;;;;;;1999.90;999.90;;;;;;;;;;5037268;28;20048;-82
2023/11/08 08:57:26;;;;;;;1999.90;999.90;;;;;;;;;;5059757;28;20127;-83
2023/11/08 08:59:52;;;;;;;1999.90;999.90;;;;;;;;;;5060226;28;20052;-83
2023/11/08 09:02:23;;;;;;;1999.90;999.90;;;;;;;;;;5057421;28;20123;-83
2023/11/08 09:04:50;;;;;;;1999.90;999.90;;;;;;;;;;5041370;28;20139;-82
2023/11/08 09:07:18;;;;;;;1999.90;999.90;;;;;;;;;;5038296;28;20076;-82
2023/11/08 09:09:44;;;;;;;1999.90;999.90;;;;;;;;;;5058444;28;20045;-83
2023/11/08 09:12:14;;;;;;;1999.90;999.90;;;;;;;;;;5056186;28;20051;-83
2023/11/08 09:14:42;;;;;;;1999.90;999.90;;;;;;;;;;5057489;28;20055;-84
2023/11/08 09:17:09;;;;;;;1999.90;999.90;;;;;;;;;;5040533;28;20041;-84
2023/11/08 09:19:37;;;;;;;1999.90;999.90;;;;;;;;;;5042535;28;20053;-83
2023/11/08 09:22:04;;;;;;;1999.90;999.90;;;;;;;;;;5062257;28;20443;-82
2023/11/08 09:24:32;;;;;;;1999.90;999.90;;;;;;;;;;5059613;28;20057;-84
2023/11/08 09:26:59;;;;;;;1999.90;999.90;;;;;;;;;;5060229;28;20055;-84
2023/11/08 09:29:28;;;;;;;1999.90;999.90;;;;;;;;;;5057232;28;20048;-86
2023/11/08 09:31:56;;;;;;;1999.90;999.90;;;;;;;;;;5046128;28;20525;-85
2023/11/08 09:34:23;;;;;;;1999.90;999.90;;;;;;;;;;5042459;28;20503;-85
2023/11/08 09:36:51;;;;;;;1999.90;999.90;;;;;;;;;;5030507;28;20061;-87
2023/11/08 09:39:18;;;;;;;1999.90;999.90;;;;;;;;;;5057043;28;20048;-84
2023/11/08 09:41:45;;;;;;;1999.90;999.90;;;;;;;;;;5042673;28;20049;-86
2023/11/08 09:44:13;;;;;;;1999.90;999.90;;;;;;;;;;5054584;28;20045;-86
2023/11/08 09:46:41;;;;;;;1999.90;999.90;;;;;;;;;;5055742;28;20578;-88
2023/11/08 09:49:08;;;;;;;1999.90;999.90;;;;;;;;;;5061897;28;20139;-83
2023/11/08 09:51:35;;;;;;;1999.90;999.90;;;;;;;;;;5040645;28;20128;-83
2023/11/08 09:54:06;;;;;;;1999.90;999.90;;;;;;;;;;5036913;28;20049;-86
2023/11/08 09:56:33;;;;;;;1999.90;999.90;;;;;;;;;;5061195;28;20044;-83
2023/11/08 09:59:07;;;;;;;1999.90;999.90;;;;;;;;;;5065118;28;20056;-89
2023/11/08 10:01:37;;;;;;;1999.90;999.90;;;;;;;;;;5062259;28;20048;-87
2023/11/08 10:04:10;;;;;;;1999.90;999.90;;;;;;;;;;5055648;28;20501;-90
2023/11/08 10:06:37;;;;;;;1999.90;999.90;;;;;;;;;;5065372;28;20056;-84
2023/11/08 10:09:06;;;;;;;1999.90;999.90;;;;;;;;;;5060208;28;20052;-88
2023/11/08 10:11:36;;;;;;;1999.90;999.90;;;;;;;;;;5060352;28;20045;-85
2023/11/08 10:14:03;;;;;;;1999.90;999.90;;;;;;;;;;5062779;28;20518;-85
2023/11/08 10:16:44;;;;;;;1999.90;999.90;;;;;;;;;;5063409;28;20055;-84
2023/11/08 10:19:11;;;;;;;1999.90;999.90;;;;;;;;;;5042618;28;20067;-85
2023/11/08 10:21:40;;;;;;;1999.90;999.90;;;;;;;;;;5014097;28;1144523;-84
2023/11/08 10:24:15;;;;;;;1999.90;999.90;;;;;;;;;;5056342;28;20517;-84
2023/11/08 10:26:42;;;;;;;1999.90;999.90;;;;;;;;;;5060605;28;20139;-88
2023/11/08 10:29:11;;;;;;;1999.90;999.90;;;;;;;;;;5064500;28;20081;-85
2023/11/08 10:31:40;;;;;;;1999.90;999.90;;;;;;;;;;5066767;28;20052;-88
2023/11/08 10:34:08;;;;;;;1999.90;999.90;;;;;;;;;;5063818;28;20110;-85
2023/11/08 10:36:36;;;;;;;1999.90;999.90;;;;;;;;;;5064180;28;20057;-93
2023/11/08 10:39:06;;;;;;;1999.90;999.90;;;;;;;;;;5065751;28;20056;-87
2023/11/08 10:41:36;;;;;;;1999.90;999.90;;;;;;;;;;5069744;28;20163;-88
2023/11/08 10:44:10;;;;;;;1999.90;999.90;;;;;;;;;;5063104;28;20057;-86
2023/11/08 10:46:38;;;;;;;1999.90;999.90;;;;;;;;;;5063507;28;20049;-87
2023/11/08 10:49:06;;;;;;;1999.90;999.90;;;;;;;;;;5060206;28;20427;-89
2023/11/08 10:51:34;;;;;;;1999.90;999.90;;;;;;;;;;5062415;28;20063;-90
2023/11/08 10:54:01;;;;;;;1999.90;999.90;;;;;;;;;;5060446;28;20053;-87
2023/11/08 10:56:29;;;;;;;1999.90;999.90;;;;;;;;;;5066712;28;20559;-86
2023/11/08 10:59:02;;;;;;;1999.90;999.90;;;;;;;;;;5062659;28;20071;-90
2023/11/08 11:01:32;;;;;;;1999.90;999.90;;;;;;;;;;5064927;28;20144;-91
2023/11/08 11:04:05;;;;;;;1999.90;999.90;;;;;;;;;;5059264;28;20044;-90
2023/11/08 11:06:36;;;;;;;1999.90;999.90;;;;;;;;;;5061886;28;20075;-90
2023/11/08 11:09:04;;;;;;;1999.90;999.90;;;;;;;;;;5060469;28;20056;-89
2023/11/08 11:11:33;;;;;;;1999.90;999.90;;;;;;;;;;5060326;28;20045;-92
2023/11/08 11:14:07;;;;;;;1999.90;999.90;;;;;;;;;;5061027;28;20051;-91
2023/11/08 11:16:40;;;;;;;1999.90;999.90;;;;;;;;;;5068979;28;20110;-86
2023/11/08 11:19:10;;;;;;;1999.90;999.90;;;;;;;;;;5069098;28;20418;-91
2023/11/08 11:21:42;;;;;;;1999.90;999.90;;;;;;;;;;5061391;28;20511;-85
2023/11/08 11:24:42;;;;;;;1999.90;999.90;;;;;;;;;;5043386;28;20061;-89
2023/11/08 11:27:10;;;;;;;1999.90;999.90;;;;;;;;;;5058892;28;20494;-88
2023/11/08 11:29:41;;;;;;;1999.90;999.90;;;;;;;;;;5067779;28;20102;-93
2023/11/08 11:32:32;;;;;;;1999.90;999.90;;;;;;;;;;5074443;28;20053;-93
2023/11/08 11:35:00;;;;;;;1999.90;999.90;;;;;;;;;;5068472;28;20061;-87
2023/11/08 11:37:27;;;;;;;1999.90;999.90;;;;;;;;;;5061655;28;20057;-93
2023/11/08 11:40:16;;;;;;;1999.90;999.90;;;;;;;;;;5066146;28;20056;-88
2023/11/08 11:42:51;;;;;;;1999.90;999.90;;;;;;;;;;5075102;28;20639;-92
2023/11/08 11:45:25;;;;;;;1999.90;999.90;;;;;;;;;;5069415;28;20550;-89
2023/11/08 11:47:53;;;;;;;1999.90;999.90;;;;;;;;;;5074158;28;20120;-91
2023/11/08 11:50:20;;;;;;;1999.90;999.90;;;;;;;;;;5069124;28;20110;-91
2023/11/08 11:52:49;;;;;;;1999.90;999.90;;;;;;;;;;5067908;28;20044;-89
2023/11/08 11:55:17;;;;;;;1999.90;999.90;;;;;;;;;;5060221;28;20063;-90
2023/11/08 11:57:44;;;;;;;1999.90;999.90;;;;;;;;;;5071359;28;20131;-91
2023/11/08 12:00:11;;;;;;;1999.90;999.90;;;;;;;;;;5070688;28;20052;-88
2023/11/08 12:02:40;;;;;;;1999.90;999.90;;;;;;;;;;5060052;28;20513;-86
2023/11/08 12:05:07;;;;;;;1999.90;999.90;;;;;;;;;;5061734;28;20110;-88
2023/11/08 12:07:36;;;;;;;1999.90;999.90;;;;;;;;;;5064698;28;20056;-87
2023/11/08 12:10:07;;;;;;;1999.90;999.90;;;;;;;;;;5067453;28;20156;-88
2023/11/08 12:12:35;;;;;;;1999.90;999.90;;;;;;;;;;5059243;28;20098;-91
2023/11/08 12:15:15;;;;;;;1999.90;999.90;;;;;;;;;;5062666;28;20052;-89
2023/11/08 12:17:48;;;;;;;1999.90;999.90;;;;;;;;;;5065514;28;20056;-88
2023/11/08 12:20:15;;;;;;;1999.90;999.90;;;;;;;;;;5059681;28;20077;-88
2023/11/08 12:22:47;;;;;;;1999.90;999.90;;;;;;;;;;5058260;28;20040;-90
2023/11/08 12:25:14;;;;;;;1999.90;999.90;;;;;;;;;;5064402;28;20049;-90
2023/11/08 12:27:41;;;;;;;1999.90;999.90;;;;;;;;;;5063019;28;20071;-86
2023/11/08 12:30:08;;;;;;;1999.90;999.90;;;;;;;;;;5064159;28;20076;-89
2023/11/08 12:32:36;;;;;;;1999.90;999.90;;;;;;;;;;5065579;28;20055;-88
2023/11/08 12:35:05;;;;;;;1999.90;999.90;;;;;;;;;;5059819;28;20506;-87
2023/11/08 12:37:32;;;;;;;1999.90;999.90;;;;;;;;;;5059042;28;20139;-86
2023/11/08 12:40:16;;;;;;;1999.90;999.90;;;;;;;;;;5057333;28;20060;-86
2023/11/08 12:42:43;;;;;;;1999.90;999.90;;;;;;;;;;5060924;28;20071;-87
2023/11/08 12:45:12;;;;;;;1999.90;999.90;;;;;;;;;;5064057;28;20052;-87
2023/11/08 12:47:45;;;;;;;1999.90;999.90;;;;;;;;;;5065963;28;20056;-87
2023/11/08 12:50:14;;;;;;;1999.90;999.90;;;;;;;;;;5055650;28;20081;-87
2023/11/08 12:52:41;;;;;;;1999.90;999.90;;;;;;;;;;5052221;28;20509;-87
2023/11/08 12:55:08;;;;;;;1999.90;999.90;;;;;;;;;;5061649;28;20049;-87
2023/11/08 12:57:37;;;;;;;1999.90;999.90;;;;;;;;;;5066134;28;20091;-89
2023/11/08 13:00:06;;;;;;;1999.90;999.90;;;;;;;;;;5062733;28;20075;-86
2023/11/08 13:02:33;;;;;;;1999.90;999.90;;;;;;;;;;5065668;28;20206;-87
2023/11/08 13:05:00;;;;;;;1999.90;999.90;;;;;;;;;;5060039;28;20063;-88
2023/11/08 13:07:28;;;;;;;1999.90;999.90;;;;;;;;;;5059547;28;20052;-87
2023/11/08 13:09:55;;;;;;;1999.90;999.90;;;;;;;;;;5060730;28;20172;-88
2023/11/08 13:12:22;;;;;;;1999.90;999.90;;;;;;;;;;5066088;28;20052;-88
2023/11/08 13:14:49;;;;;;;1999.90;999.90;;;;;;;;;;5057643;28;20064;-87
2023/11/08 13:17:16;;;;;;;1999.90;999.90;;;;;;;;;;5062873;28;20055;-89
2023/11/08 13:19:43;;;;;;;1999.90;999.90;;;;;;;;;;5059775;28;20065;-87
2023/11/08 13:22:10;;;;;;;1999.90;999.90;;;;;;;;;;5060607;28;20149;-89
2023/11/08 13:24:39;;;;;;;1999.90;999.90;;;;;;;;;;5057468;28;20051;-89
2023/11/08 13:27:06;;;;;;;1999.90;999.90;;;;;;;;;;5066872;28;20402;-89
2023/11/08 13:29:33;;;;;;;1999.90;999.90;;;;;;;;;;5067282;28;20135;-86
2023/11/08 13:32:01;;;;;;;1999.90;999.90;;;;;;;;;;5059265;28;20056;-90
2023/11/08 13:34:28;;;;;;;1999.90;999.90;;;;;;;;;;5058304;28;20475;-87
2023/11/08 13:36:58;;;;;;;1999.90;999.90;;;;;;;;;;5062064;28;20053;-87
2023/11/08 13:39:25;;;;;;;1999.90;999.90;;;;;;;;;;5069054;28;20082;-87
2023/11/08 13:41:53;;;;;;;1999.90;999.90;;;;;;;;;;5055326;28;20059;-86
2023/11/08 13:44:20;;;;;;;1999.90;999.90;;;;;;;;;;5060859;28;20053;-86
2023/11/08 13:46:46;;;;;;;1999.90;999.90;;;;;;;;;;5045024;28;20052;-86